sensor_id;sensor_type;location;lat;lon;timestamp;P1;durP1;ratioP1;P2;durP2;ratioP2
82410;SDS011;76378;60.040;30.218;2024-03-22T00:00:07;6.85;;;3.20;;
82410;SDS011;76378;60.040;30.218;2024-03-22T00:01:11;7.70;;;3.50;;
82410;SDS011;76378;60.040;30.218;2024-03-22T00:02:12;8.88;;;3.85;;
82410;SDS011;76378;60.040;30.218;2024-03-22T00:03:12;8.32;;;3.97;;
82410;SDS011;76378;60.040;30.218;2024-03-22T00:04:13;7.03;;;3.30;;
82410;SDS011;76378;60.040;30.218;2024-03-22T00:05:14;6.68;;;3.20;;
82410;SDS011;76378;60.040;30.218;2024-03-22T00:06:17;7.10;;;3.25;;
82410;SDS011;76378;60.040;30.218;2024-03-22T00:07:17;6.90;;;3.25;;
82410;SDS011;76378;60.040;30.218;2024-03-22T00:08:18;6.93;;;3.50;;
82410;SDS011;76378;60.040;30.218;2024-03-22T00:09:18;8.05;;;3.40;;
82410;SDS011;76378;60.040;30.218;2024-03-22T00:10:19;7.32;;;3.53;;
82410;SDS011;76378;60.040;30.218;2024-03-22T00:11:19;9.23;;;4.00;;
82410;SDS011;76378;60.040;30.218;2024-03-22T00:12:20;5.90;;;3.60;;
82410;SDS011;76378;60.040;30.218;2024-03-22T00:13:20;7.50;;;3.30;;
82410;SDS011;76378;60.040;30.218;2024-03-22T00:14:21;9.13;;;3.83;;
82410;SDS011;76378;60.040;30.218;2024-03-22T00:15:22;8.50;;;3.28;;
82410;SDS011;76378;60.040;30.218;2024-03-22T00:16:22;6.68;;;3.60;;
82410;SDS011;76378;60.040;30.218;2024-03-22T00:17:23;6.53;;;3.20;;
82410;SDS011;76378;60.040;30.218;2024-03-22T00:18:23;8.23;;;3.50;;
82410;SDS011;76378;60.040;30.218;2024-03-22T00:19:24;7.18;;;3.45;;
82410;SDS011;76378;60.040;30.218;2024-03-22T00:20:24;8.40;;;3.70;;
82410;SDS011;76378;60.040;30.218;2024-03-22T00:21:25;5.93;;;3.47;;
82410;SDS011;76378;60.040;30.218;2024-03-22T00:22:26;8.15;;;3.88;;
82410;SDS011;76378;60.040;30.218;2024-03-22T00:23:26;8.80;;;3.38;;
82410;SDS011;76378;60.040;30.218;2024-03-22T00:24:27;9.98;;;3.65;;
82410;SDS011;76378;60.040;30.218;2024-03-22T00:25:27;8.00;;;3.35;;
82410;SDS011;76378;60.040;30.218;2024-03-22T00:26:28;7.90;;;3.42;;
82410;SDS011;76378;60.040;30.218;2024-03-22T00:27:29;7.25;;;3.38;;
82410;SDS011;76378;60.040;30.218;2024-03-22T00:28:29;6.20;;;3.25;;
82410;SDS011;76378;60.040;30.218;2024-03-22T00:29:30;5.93;;;3.25;;
82410;SDS011;76378;60.040;30.218;2024-03-22T00:30:30;7.63;;;3.63;;
82410;SDS011;76378;60.040;30.218;2024-03-22T00:31:31;6.60;;;3.55;;
82410;SDS011;76378;60.040;30.218;2024-03-22T00:32:31;6.65;;;3.05;;
82410;SDS011;76378;60.040;30.218;2024-03-22T00:33:32;9.20;;;3.55;;
82410;SDS011;76378;60.040;30.218;2024-03-22T00:34:33;7.25;;;3.42;;
82410;SDS011;76378;60.040;30.218;2024-03-22T00:35:34;8.27;;;3.88;;
82410;SDS011;76378;60.040;30.218;2024-03-22T00:36:35;7.80;;;3.63;;
82410;SDS011;76378;60.040;30.218;2024-03-22T00:37:35;8.68;;;3.88;;
82410;SDS011;76378;60.040;30.218;2024-03-22T00:38:36;6.10;;;3.50;;
82410;SDS011;76378;60.040;30.218;2024-03-22T00:39:37;5.78;;;3.30;;
82410;SDS011;76378;60.040;30.218;2024-03-22T00:40:37;5.85;;;3.03;;
82410;SDS011;76378;60.040;30.218;2024-03-22T00:41:38;6.82;;;3.47;;
82410;SDS011;76378;60.040;30.218;2024-03-22T00:42:39;6.75;;;3.50;;
82410;SDS011;76378;60.040;30.218;2024-03-22T00:43:39;8.50;;;3.38;;
82410;SDS011;76378;60.040;30.218;2024-03-22T00:44:40;7.28;;;3.20;;
82410;SDS011;76378;60.040;30.218;2024-03-22T00:45:41;7.75;;;3.65;;
82410;SDS011;76378;60.040;30.218;2024-03-22T00:46:41;8.88;;;3.53;;
82410;SDS011;76378;60.040;30.218;2024-03-22T00:47:42;7.25;;;3.38;;
82410;SDS011;76378;60.040;30.218;2024-03-22T00:48:43;10.82;;;3.60;;
82410;SDS011;76378;60.040;30.218;2024-03-22T00:49:43;10.30;;;3.30;;
82410;SDS011;76378;60.040;30.218;2024-03-22T00:50:44;8.80;;;3.88;;
82410;SDS011;76378;60.040;30.218;2024-03-22T00:51:44;8.35;;;3.50;;
82410;SDS011;76378;60.040;30.218;2024-03-22T00:52:45;7.95;;;3.60;;
82410;SDS011;76378;60.040;30.218;2024-03-22T00:53:46;7.32;;;3.60;;
82410;SDS011;76378;60.040;30.218;2024-03-22T00:54:47;11.18;;;3.90;;
82410;SDS011;76378;60.040;30.218;2024-03-22T00:55:47;6.45;;;3.75;;
82410;SDS011;76378;60.040;30.218;2024-03-22T00:56:51;8.75;;;3.90;;
82410;SDS011;76378;60.040;30.218;2024-03-22T00:57:51;8.20;;;3.38;;
82410;SDS011;76378;60.040;30.218;2024-03-22T00:58:52;7.25;;;3.70;;
82410;SDS011;76378;60.040;30.218;2024-03-22T00:59:52;8.93;;;3.55;;
82410;SDS011;76378;60.040;30.218;2024-03-22T01:00:53;7.93;;;3.53;;
82410;SDS011;76378;60.040;30.218;2024-03-22T01:01:54;9.23;;;3.60;;
82410;SDS011;76378;60.040;30.218;2024-03-22T01:02:55;6.65;;;3.45;;
82410;SDS011;76378;60.040;30.218;2024-03-22T01:03:56;8.90;;;3.72;;
82410;SDS011;76378;60.040;30.218;2024-03-22T01:04:56;7.82;;;3.70;;
82410;SDS011;76378;60.040;30.218;2024-03-22T01:05:57;7.45;;;3.65;;
82410;SDS011;76378;60.040;30.218;2024-03-22T01:06:57;8.50;;;3.70;;
82410;SDS011;76378;60.040;30.218;2024-03-22T01:07:59;6.65;;;3.38;;
82410;SDS011;76378;60.040;30.218;2024-03-22T01:08:59;7.80;;;3.97;;
82410;SDS011;76378;60.040;30.218;2024-03-22T01:10:00;7.63;;;3.25;;
82410;SDS011;76378;60.040;30.218;2024-03-22T01:11:00;8.38;;;3.60;;
82410;SDS011;76378;60.040;30.218;2024-03-22T01:12:01;7.20;;;3.58;;
82410;SDS011;76378;60.040;30.218;2024-03-22T01:13:02;7.68;;;3.53;;
82410;SDS011;76378;60.040;30.218;2024-03-22T01:14:02;9.50;;;4.25;;
82410;SDS011;76378;60.040;30.218;2024-03-22T01:15:03;8.18;;;3.90;;
82410;SDS011;76378;60.040;30.218;2024-03-22T01:16:04;8.75;;;3.88;;
82410;SDS011;76378;60.040;30.218;2024-03-22T01:17:05;7.82;;;3.60;;
82410;SDS011;76378;60.040;30.218;2024-03-22T01:18:06;8.10;;;3.97;;
82410;SDS011;76378;60.040;30.218;2024-03-22T01:19:06;7.00;;;3.50;;
82410;SDS011;76378;60.040;30.218;2024-03-22T01:20:07;8.45;;;3.90;;
82410;SDS011;76378;60.040;30.218;2024-03-22T01:21:08;9.38;;;3.80;;
82410;SDS011;76378;60.040;30.218;2024-03-22T01:22:08;10.38;;;4.22;;
82410;SDS011;76378;60.040;30.218;2024-03-22T01:23:09;10.85;;;3.88;;
82410;SDS011;76378;60.040;30.218;2024-03-22T01:24:09;11.05;;;4.32;;
82410;SDS011;76378;60.040;30.218;2024-03-22T01:25:10;7.32;;;3.33;;
82410;SDS011;76378;60.040;30.218;2024-03-22T01:26:10;9.68;;;3.97;;
82410;SDS011;76378;60.040;30.218;2024-03-22T01:27:11;13.15;;;4.20;;
82410;SDS011;76378;60.040;30.218;2024-03-22T01:28:12;9.60;;;3.95;;
82410;SDS011;76378;60.040;30.218;2024-03-22T01:29:13;9.80;;;3.72;;
82410;SDS011;76378;60.040;30.218;2024-03-22T01:30:14;9.50;;;4.35;;
82410;SDS011;76378;60.040;30.218;2024-03-22T01:31:14;9.98;;;4.10;;
82410;SDS011;76378;60.040;30.218;2024-03-22T01:32:16;7.18;;;3.65;;
82410;SDS011;76378;60.040;30.218;2024-03-22T01:33:16;7.97;;;4.10;;
82410;SDS011;76378;60.040;30.218;2024-03-22T01:34:17;9.57;;;3.92;;
82410;SDS011;76378;60.040;30.218;2024-03-22T01:35:17;7.70;;;3.45;;
82410;SDS011;76378;60.040;30.218;2024-03-22T01:36:18;8.82;;;4.05;;
82410;SDS011;76378;60.040;30.218;2024-03-22T01:37:18;9.00;;;4.30;;
82410;SDS011;76378;60.040;30.218;2024-03-22T01:38:19;9.43;;;4.35;;
82410;SDS011;76378;60.040;30.218;2024-03-22T01:39:20;10.13;;;4.25;;
82410;SDS011;76378;60.040;30.218;2024-03-22T01:40:21;9.10;;;4.18;;
82410;SDS011;76378;60.040;30.218;2024-03-22T01:41:21;10.70;;;4.10;;
82410;SDS011;76378;60.040;30.218;2024-03-22T01:42:22;8.48;;;3.33;;
82410;SDS011;76378;60.040;30.218;2024-03-22T01:43:23;8.43;;;4.10;;
82410;SDS011;76378;60.040;30.218;2024-03-22T01:44:29;13.98;;;4.32;;
82410;SDS011;76378;60.040;30.218;2024-03-22T01:45:32;9.43;;;4.32;;
82410;SDS011;76378;60.040;30.218;2024-03-22T01:47:34;9.48;;;3.70;;
82410;SDS011;76378;60.040;30.218;2024-03-22T01:48:35;7.78;;;3.60;;
82410;SDS011;76378;60.040;30.218;2024-03-22T01:49:36;9.73;;;4.22;;
82410;SDS011;76378;60.040;30.218;2024-03-22T01:51:38;9.75;;;4.22;;
82410;SDS011;76378;60.040;30.218;2024-03-22T01:52:40;8.80;;;4.18;;
82410;SDS011;76378;60.040;30.218;2024-03-22T01:53:41;9.73;;;4.53;;
82410;SDS011;76378;60.040;30.218;2024-03-22T01:54:41;10.27;;;4.53;;
82410;SDS011;76378;60.040;30.218;2024-03-22T01:55:42;9.77;;;4.03;;
82410;SDS011;76378;60.040;30.218;2024-03-22T01:56:43;10.68;;;4.22;;
82410;SDS011;76378;60.040;30.218;2024-03-22T01:57:44;7.20;;;3.85;;
82410;SDS011;76378;60.040;30.218;2024-03-22T01:58:45;8.48;;;3.78;;
82410;SDS011;76378;60.040;30.218;2024-03-22T02:00:49;9.45;;;4.20;;
82410;SDS011;76378;60.040;30.218;2024-03-22T02:01:50;9.20;;;4.18;;
82410;SDS011;76378;60.040;30.218;2024-03-22T02:02:51;9.10;;;3.90;;
82410;SDS011;76378;60.040;30.218;2024-03-22T02:03:51;10.85;;;4.47;;
82410;SDS011;76378;60.040;30.218;2024-03-22T02:04:52;10.38;;;4.68;;
82410;SDS011;76378;60.040;30.218;2024-03-22T02:05:53;8.75;;;4.22;;
82410;SDS011;76378;60.040;30.218;2024-03-22T02:06:53;11.27;;;4.78;;
82410;SDS011;76378;60.040;30.218;2024-03-22T02:07:54;9.65;;;4.53;;
82410;SDS011;76378;60.040;30.218;2024-03-22T02:08:56;10.98;;;4.45;;
82410;SDS011;76378;60.040;30.218;2024-03-22T02:09:57;10.52;;;4.70;;
82410;SDS011;76378;60.040;30.218;2024-03-22T02:10:58;8.27;;;4.32;;
82410;SDS011;76378;60.040;30.218;2024-03-22T02:11:58;9.27;;;4.57;;
82410;SDS011;76378;60.040;30.218;2024-03-22T02:12:59;10.23;;;4.75;;
82410;SDS011;76378;60.040;30.218;2024-03-22T02:14:00;12.40;;;5.10;;
82410;SDS011;76378;60.040;30.218;2024-03-22T02:15:01;12.00;;;5.00;;
82410;SDS011;76378;60.040;30.218;2024-03-22T02:16:03;12.48;;;4.75;;
82410;SDS011;76378;60.040;30.218;2024-03-22T02:18:04;9.85;;;4.10;;
82410;SDS011;76378;60.040;30.218;2024-03-22T02:19:05;10.20;;;4.55;;
82410;SDS011;76378;60.040;30.218;2024-03-22T02:20:05;10.60;;;4.57;;
82410;SDS011;76378;60.040;30.218;2024-03-22T02:21:07;11.90;;;5.00;;
82410;SDS011;76378;60.040;30.218;2024-03-22T02:22:08;9.65;;;4.53;;
82410;SDS011;76378;60.040;30.218;2024-03-22T02:23:08;9.57;;;4.30;;
82410;SDS011;76378;60.040;30.218;2024-03-22T02:24:09;12.02;;;5.70;;
82410;SDS011;76378;60.040;30.218;2024-03-22T02:25:09;13.55;;;4.65;;
82410;SDS011;76378;60.040;30.218;2024-03-22T02:26:10;9.32;;;4.63;;
82410;SDS011;76378;60.040;30.218;2024-03-22T02:27:11;10.20;;;4.53;;
82410;SDS011;76378;60.040;30.218;2024-03-22T02:28:11;9.50;;;4.40;;
82410;SDS011;76378;60.040;30.218;2024-03-22T02:29:12;9.70;;;4.75;;
82410;SDS011;76378;60.040;30.218;2024-03-22T02:30:12;11.50;;;5.40;;
82410;SDS011;76378;60.040;30.218;2024-03-22T02:31:13;10.13;;;4.97;;
82410;SDS011;76378;60.040;30.218;2024-03-22T02:32:13;10.60;;;4.85;;
82410;SDS011;76378;60.040;30.218;2024-03-22T02:33:14;10.55;;;4.95;;
82410;SDS011;76378;60.040;30.218;2024-03-22T02:34:15;9.80;;;4.80;;
82410;SDS011;76378;60.040;30.218;2024-03-22T02:35:15;10.55;;;4.60;;
82410;SDS011;76378;60.040;30.218;2024-03-22T02:36:16;10.07;;;4.45;;
82410;SDS011;76378;60.040;30.218;2024-03-22T02:37:17;10.35;;;5.18;;
82410;SDS011;76378;60.040;30.218;2024-03-22T02:38:18;11.90;;;5.10;;
82410;SDS011;76378;60.040;30.218;2024-03-22T02:39:19;10.15;;;4.78;;
82410;SDS011;76378;60.040;30.218;2024-03-22T02:40:19;11.32;;;5.10;;
82410;SDS011;76378;60.040;30.218;2024-03-22T02:41:21;15.75;;;5.25;;
82410;SDS011;76378;60.040;30.218;2024-03-22T02:42:22;9.70;;;5.22;;
82410;SDS011;76378;60.040;30.218;2024-03-22T02:43:22;9.63;;;4.53;;
82410;SDS011;76378;60.040;30.218;2024-03-22T02:44:23;11.95;;;5.55;;
82410;SDS011;76378;60.040;30.218;2024-03-22T02:45:23;11.55;;;4.80;;
82410;SDS011;76378;60.040;30.218;2024-03-22T02:46:24;11.05;;;4.93;;
82410;SDS011;76378;60.040;30.218;2024-03-22T02:47:24;9.70;;;4.93;;
82410;SDS011;76378;60.040;30.218;2024-03-22T02:48:25;14.15;;;5.45;;
82410;SDS011;76378;60.040;30.218;2024-03-22T02:49:25;10.02;;;4.60;;
82410;SDS011;76378;60.040;30.218;2024-03-22T02:50:26;12.35;;;5.50;;
82410;SDS011;76378;60.040;30.218;2024-03-22T02:51:27;10.63;;;4.68;;
82410;SDS011;76378;60.040;30.218;2024-03-22T02:52:27;10.52;;;4.75;;
82410;SDS011;76378;60.040;30.218;2024-03-22T02:53:28;12.43;;;5.13;;
82410;SDS011;76378;60.040;30.218;2024-03-22T02:54:28;10.15;;;4.85;;
82410;SDS011;76378;60.040;30.218;2024-03-22T02:55:29;11.68;;;5.45;;
82410;SDS011;76378;60.040;30.218;2024-03-22T02:56:30;10.98;;;4.85;;
82410;SDS011;76378;60.040;30.218;2024-03-22T02:57:30;9.98;;;4.82;;
82410;SDS011;76378;60.040;30.218;2024-03-22T02:58:31;12.05;;;5.32;;
82410;SDS011;76378;60.040;30.218;2024-03-22T02:59:32;10.40;;;4.97;;
82410;SDS011;76378;60.040;30.218;2024-03-22T03:00:38;13.02;;;5.38;;
82410;SDS011;76378;60.040;30.218;2024-03-22T03:01:39;11.27;;;5.60;;
82410;SDS011;76378;60.040;30.218;2024-03-22T03:02:40;12.93;;;5.50;;
82410;SDS011;76378;60.040;30.218;2024-03-22T03:03:40;10.77;;;4.93;;
82410;SDS011;76378;60.040;30.218;2024-03-22T03:04:41;11.18;;;5.35;;
82410;SDS011;76378;60.040;30.218;2024-03-22T03:05:42;9.65;;;4.72;;
82410;SDS011;76378;60.040;30.218;2024-03-22T03:06:42;9.98;;;4.85;;
82410;SDS011;76378;60.040;30.218;2024-03-22T03:07:44;11.35;;;5.55;;
82410;SDS011;76378;60.040;30.218;2024-03-22T03:08:46;13.40;;;5.28;;
82410;SDS011;76378;60.040;30.218;2024-03-22T03:09:47;16.23;;;5.28;;
82410;SDS011;76378;60.040;30.218;2024-03-22T03:10:47;11.40;;;5.05;;
82410;SDS011;76378;60.040;30.218;2024-03-22T03:11:48;12.45;;;5.05;;
82410;SDS011;76378;60.040;30.218;2024-03-22T03:12:48;10.55;;;4.55;;
82410;SDS011;76378;60.040;30.218;2024-03-22T03:13:49;13.27;;;5.28;;
82410;SDS011;76378;60.040;30.218;2024-03-22T03:14:49;11.48;;;5.38;;
82410;SDS011;76378;60.040;30.218;2024-03-22T03:15:50;10.65;;;5.05;;
82410;SDS011;76378;60.040;30.218;2024-03-22T03:16:51;10.60;;;5.55;;
82410;SDS011;76378;60.040;30.218;2024-03-22T03:17:51;14.77;;;5.38;;
82410;SDS011;76378;60.040;30.218;2024-03-22T03:18:52;14.60;;;5.88;;
82410;SDS011;76378;60.040;30.218;2024-03-22T03:19:52;11.60;;;5.68;;
82410;SDS011;76378;60.040;30.218;2024-03-22T03:20:53;10.13;;;5.28;;
82410;SDS011;76378;60.040;30.218;2024-03-22T03:21:53;13.13;;;5.50;;
82410;SDS011;76378;60.040;30.218;2024-03-22T03:22:54;11.45;;;5.30;;
82410;SDS011;76378;60.040;30.218;2024-03-22T03:23:55;10.13;;;5.13;;
82410;SDS011;76378;60.040;30.218;2024-03-22T03:24:56;11.68;;;5.68;;
82410;SDS011;76378;60.040;30.218;2024-03-22T03:25:56;14.38;;;5.60;;
82410;SDS011;76378;60.040;30.218;2024-03-22T03:26:57;14.20;;;5.25;;
82410;SDS011;76378;60.040;30.218;2024-03-22T03:27:57;12.20;;;4.90;;
82410;SDS011;76378;60.040;30.218;2024-03-22T03:28:58;13.55;;;5.32;;
82410;SDS011;76378;60.040;30.218;2024-03-22T03:29:58;10.90;;;5.00;;
82410;SDS011;76378;60.040;30.218;2024-03-22T03:30:59;11.75;;;5.15;;
82410;SDS011;76378;60.040;30.218;2024-03-22T03:32:00;11.98;;;5.28;;
82410;SDS011;76378;60.040;30.218;2024-03-22T03:33:00;11.40;;;5.50;;
82410;SDS011;76378;60.040;30.218;2024-03-22T03:34:01;11.65;;;5.25;;
82410;SDS011;76378;60.040;30.218;2024-03-22T03:35:02;12.93;;;5.28;;
82410;SDS011;76378;60.040;30.218;2024-03-22T03:36:02;13.73;;;5.68;;
82410;SDS011;76378;60.040;30.218;2024-03-22T03:37:03;13.30;;;5.60;;
82410;SDS011;76378;60.040;30.218;2024-03-22T03:38:04;10.63;;;5.20;;
82410;SDS011;76378;60.040;30.218;2024-03-22T03:39:04;12.73;;;4.88;;
82410;SDS011;76378;60.040;30.218;2024-03-22T03:40:05;10.82;;;5.07;;
82410;SDS011;76378;60.040;30.218;2024-03-22T03:41:06;10.88;;;5.10;;
82410;SDS011;76378;60.040;30.218;2024-03-22T03:42:07;11.35;;;5.25;;
82410;SDS011;76378;60.040;30.218;2024-03-22T03:43:08;11.50;;;5.28;;
82410;SDS011;76378;60.040;30.218;2024-03-22T03:44:08;13.30;;;5.40;;
82410;SDS011;76378;60.040;30.218;2024-03-22T03:45:09;11.57;;;5.68;;
82410;SDS011;76378;60.040;30.218;2024-03-22T03:46:09;10.57;;;4.70;;
82410;SDS011;76378;60.040;30.218;2024-03-22T03:47:10;10.43;;;5.47;;
82410;SDS011;76378;60.040;30.218;2024-03-22T03:48:11;11.43;;;5.38;;
82410;SDS011;76378;60.040;30.218;2024-03-22T03:49:11;10.68;;;4.70;;
82410;SDS011;76378;60.040;30.218;2024-03-22T03:50:12;10.63;;;5.25;;
82410;SDS011;76378;60.040;30.218;2024-03-22T03:51:12;11.77;;;4.82;;
82410;SDS011;76378;60.040;30.218;2024-03-22T03:52:13;10.77;;;4.50;;
82410;SDS011;76378;60.040;30.218;2024-03-22T03:53:14;10.73;;;5.05;;
82410;SDS011;76378;60.040;30.218;2024-03-22T03:54:14;10.50;;;5.53;;
82410;SDS011;76378;60.040;30.218;2024-03-22T03:55:15;13.02;;;5.45;;
82410;SDS011;76378;60.040;30.218;2024-03-22T03:56:15;10.63;;;5.05;;
82410;SDS011;76378;60.040;30.218;2024-03-22T03:57:16;12.20;;;5.55;;
82410;SDS011;76378;60.040;30.218;2024-03-22T03:58:16;13.05;;;4.93;;
82410;SDS011;76378;60.040;30.218;2024-03-22T03:59:18;10.40;;;4.45;;
82410;SDS011;76378;60.040;30.218;2024-03-22T04:00:19;14.80;;;5.97;;
82410;SDS011;76378;60.040;30.218;2024-03-22T04:01:20;14.20;;;5.85;;
82410;SDS011;76378;60.040;30.218;2024-03-22T04:02:21;10.38;;;5.25;;
82410;SDS011;76378;60.040;30.218;2024-03-22T04:03:22;9.85;;;5.22;;
82410;SDS011;76378;60.040;30.218;2024-03-22T04:04:24;10.52;;;5.15;;
82410;SDS011;76378;60.040;30.218;2024-03-22T04:05:24;10.00;;;4.80;;
82410;SDS011;76378;60.040;30.218;2024-03-22T04:06:25;12.27;;;5.60;;
82410;SDS011;76378;60.040;30.218;2024-03-22T04:07:25;10.57;;;5.40;;
82410;SDS011;76378;60.040;30.218;2024-03-22T04:08:26;11.70;;;4.85;;
82410;SDS011;76378;60.040;30.218;2024-03-22T04:09:27;13.02;;;6.00;;
82410;SDS011;76378;60.040;30.218;2024-03-22T04:10:28;10.95;;;5.05;;
82410;SDS011;76378;60.040;30.218;2024-03-22T04:11:28;12.88;;;5.78;;
82410;SDS011;76378;60.040;30.218;2024-03-22T04:12:29;10.20;;;5.35;;
82410;SDS011;76378;60.040;30.218;2024-03-22T04:13:30;10.18;;;5.50;;
82410;SDS011;76378;60.040;30.218;2024-03-22T04:14:30;10.50;;;5.38;;
82410;SDS011;76378;60.040;30.218;2024-03-22T04:15:33;10.75;;;5.10;;
82410;SDS011;76378;60.040;30.218;2024-03-22T04:16:35;11.45;;;5.13;;
82410;SDS011;76378;60.040;30.218;2024-03-22T04:17:35;12.95;;;5.72;;
82410;SDS011;76378;60.040;30.218;2024-03-22T04:18:36;11.60;;;5.28;;
82410;SDS011;76378;60.040;30.218;2024-03-22T04:19:36;10.63;;;4.70;;
82410;SDS011;76378;60.040;30.218;2024-03-22T04:20:37;12.43;;;5.43;;
82410;SDS011;76378;60.040;30.218;2024-03-22T04:21:37;12.60;;;6.05;;
82410;SDS011;76378;60.040;30.218;2024-03-22T04:22:38;12.85;;;5.80;;
82410;SDS011;76378;60.040;30.218;2024-03-22T04:23:39;10.55;;;5.40;;
82410;SDS011;76378;60.040;30.218;2024-03-22T04:24:39;13.18;;;5.63;;
82410;SDS011;76378;60.040;30.218;2024-03-22T04:25:40;12.35;;;5.53;;
82410;SDS011;76378;60.040;30.218;2024-03-22T04:26:40;13.65;;;5.82;;
82410;SDS011;76378;60.040;30.218;2024-03-22T04:27:41;11.80;;;5.32;;
82410;SDS011;76378;60.040;30.218;2024-03-22T04:28:41;12.38;;;5.00;;
82410;SDS011;76378;60.040;30.218;2024-03-22T04:29:42;11.88;;;4.95;;
82410;SDS011;76378;60.040;30.218;2024-03-22T04:30:43;15.45;;;6.82;;
82410;SDS011;76378;60.040;30.218;2024-03-22T04:31:43;13.23;;;6.13;;
82410;SDS011;76378;60.040;30.218;2024-03-22T04:32:45;9.68;;;4.93;;
82410;SDS011;76378;60.040;30.218;2024-03-22T04:33:46;13.40;;;5.63;;
82410;SDS011;76378;60.040;30.218;2024-03-22T04:34:47;13.75;;;5.60;;
82410;SDS011;76378;60.040;30.218;2024-03-22T04:35:47;11.38;;;5.50;;
82410;SDS011;76378;60.040;30.218;2024-03-22T04:36:48;12.40;;;5.55;;
82410;SDS011;76378;60.040;30.218;2024-03-22T04:37:50;10.88;;;5.30;;
82410;SDS011;76378;60.040;30.218;2024-03-22T04:38:50;10.75;;;5.55;;
82410;SDS011;76378;60.040;30.218;2024-03-22T04:39:51;11.65;;;5.28;;
82410;SDS011;76378;60.040;30.218;2024-03-22T04:40:52;12.73;;;6.18;;
82410;SDS011;76378;60.040;30.218;2024-03-22T04:41:53;11.07;;;5.43;;
82410;SDS011;76378;60.040;30.218;2024-03-22T04:42:54;13.68;;;5.57;;
82410;SDS011;76378;60.040;30.218;2024-03-22T04:43:54;13.52;;;5.18;;
82410;SDS011;76378;60.040;30.218;2024-03-22T04:44:55;14.30;;;5.72;;
82410;SDS011;76378;60.040;30.218;2024-03-22T04:45:55;14.23;;;5.72;;
82410;SDS011;76378;60.040;30.218;2024-03-22T04:46:56;11.52;;;5.35;;
82410;SDS011;76378;60.040;30.218;2024-03-22T04:47:56;13.15;;;5.47;;
82410;SDS011;76378;60.040;30.218;2024-03-22T04:48:57;11.82;;;5.22;;
82410;SDS011;76378;60.040;30.218;2024-03-22T04:49:57;11.50;;;5.18;;
82410;SDS011;76378;60.040;30.218;2024-03-22T04:50:58;12.70;;;5.47;;
82410;SDS011;76378;60.040;30.218;2024-03-22T04:51:59;11.43;;;5.80;;
82410;SDS011;76378;60.040;30.218;2024-03-22T04:52:59;12.63;;;5.28;;
82410;SDS011;76378;60.040;30.218;2024-03-22T04:54:00;11.98;;;5.50;;
82410;SDS011;76378;60.040;30.218;2024-03-22T04:55:00;13.65;;;5.25;;
82410;SDS011;76378;60.040;30.218;2024-03-22T04:56:02;11.45;;;5.15;;
82410;SDS011;76378;60.040;30.218;2024-03-22T04:57:03;10.30;;;4.95;;
82410;SDS011;76378;60.040;30.218;2024-03-22T04:58:03;12.88;;;5.70;;
82410;SDS011;76378;60.040;30.218;2024-03-22T04:59:04;11.43;;;5.78;;
82410;SDS011;76378;60.040;30.218;2024-03-22T05:00:05;13.05;;;5.72;;
82410;SDS011;76378;60.040;30.218;2024-03-22T05:01:08;12.60;;;5.18;;
82410;SDS011;76378;60.040;30.218;2024-03-22T05:02:09;12.13;;;6.10;;
82410;SDS011;76378;60.040;30.218;2024-03-22T05:03:09;16.50;;;5.57;;
82410;SDS011;76378;60.040;30.218;2024-03-22T05:04:10;10.50;;;5.38;;
82410;SDS011;76378;60.040;30.218;2024-03-22T05:05:11;15.63;;;5.53;;
82410;SDS011;76378;60.040;30.218;2024-03-22T05:06:12;9.38;;;4.97;;
82410;SDS011;76378;60.040;30.218;2024-03-22T05:07:13;15.27;;;5.93;;
82410;SDS011;76378;60.040;30.218;2024-03-22T05:08:13;11.73;;;5.32;;
82410;SDS011;76378;60.040;30.218;2024-03-22T05:09:14;16.40;;;5.82;;
82410;SDS011;76378;60.040;30.218;2024-03-22T05:10:14;10.02;;;5.53;;
82410;SDS011;76378;60.040;30.218;2024-03-22T05:11:16;11.73;;;4.95;;
82410;SDS011;76378;60.040;30.218;2024-03-22T05:12:17;11.27;;;4.75;;
82410;SDS011;76378;60.040;30.218;2024-03-22T05:13:18;12.75;;;5.00;;
82410;SDS011;76378;60.040;30.218;2024-03-22T05:14:19;13.52;;;5.65;;
82410;SDS011;76378;60.040;30.218;2024-03-22T05:15:21;12.57;;;5.43;;
82410;SDS011;76378;60.040;30.218;2024-03-22T05:16:22;12.32;;;5.63;;
82410;SDS011;76378;60.040;30.218;2024-03-22T05:17:23;11.23;;;4.82;;
82410;SDS011;76378;60.040;30.218;2024-03-22T05:18:24;9.57;;;4.75;;
82410;SDS011;76378;60.040;30.218;2024-03-22T05:19:25;11.63;;;5.22;;
82410;SDS011;76378;60.040;30.218;2024-03-22T05:20:25;12.45;;;5.25;;
82410;SDS011;76378;60.040;30.218;2024-03-22T05:21:26;11.55;;;5.35;;
82410;SDS011;76378;60.040;30.218;2024-03-22T05:22:27;11.23;;;5.25;;
82410;SDS011;76378;60.040;30.218;2024-03-22T05:23:28;10.05;;;5.13;;
82410;SDS011;76378;60.040;30.218;2024-03-22T05:24:28;13.45;;;5.68;;
82410;SDS011;76378;60.040;30.218;2024-03-22T05:25:29;13.27;;;5.53;;
82410;SDS011;76378;60.040;30.218;2024-03-22T05:26:30;11.38;;;5.70;;
82410;SDS011;76378;60.040;30.218;2024-03-22T05:27:36;12.90;;;5.35;;
82410;SDS011;76378;60.040;30.218;2024-03-22T05:28:36;14.10;;;5.38;;
82410;SDS011;76378;60.040;30.218;2024-03-22T05:29:37;10.10;;;5.07;;
82410;SDS011;76378;60.040;30.218;2024-03-22T05:30:38;11.77;;;5.32;;
82410;SDS011;76378;60.040;30.218;2024-03-22T05:31:45;10.77;;;5.20;;
82410;SDS011;76378;60.040;30.218;2024-03-22T05:32:47;10.32;;;5.00;;
82410;SDS011;76378;60.040;30.218;2024-03-22T05:33:50;10.68;;;4.95;;
82410;SDS011;76378;60.040;30.218;2024-03-22T05:34:50;12.18;;;5.45;;
82410;SDS011;76378;60.040;30.218;2024-03-22T05:35:51;12.82;;;5.70;;
82410;SDS011;76378;60.040;30.218;2024-03-22T05:36:52;10.73;;;4.85;;
82410;SDS011;76378;60.040;30.218;2024-03-22T05:37:52;11.23;;;5.43;;
82410;SDS011;76378;60.040;30.218;2024-03-22T05:38:53;10.55;;;4.95;;
82410;SDS011;76378;60.040;30.218;2024-03-22T05:39:54;15.45;;;5.68;;
82410;SDS011;76378;60.040;30.218;2024-03-22T05:40:55;10.00;;;5.10;;
82410;SDS011;76378;60.040;30.218;2024-03-22T05:41:55;13.50;;;5.30;;
82410;SDS011;76378;60.040;30.218;2024-03-22T05:42:56;10.40;;;4.75;;
82410;SDS011;76378;60.040;30.218;2024-03-22T05:43:56;13.00;;;5.30;;
82410;SDS011;76378;60.040;30.218;2024-03-22T05:44:57;11.48;;;5.05;;
82410;SDS011;76378;60.040;30.218;2024-03-22T05:45:58;12.52;;;6.00;;
82410;SDS011;76378;60.040;30.218;2024-03-22T05:46:58;11.57;;;4.72;;
82410;SDS011;76378;60.040;30.218;2024-03-22T05:47:59;12.05;;;5.43;;
82410;SDS011;76378;60.040;30.218;2024-03-22T05:48:59;10.85;;;5.45;;
82410;SDS011;76378;60.040;30.218;2024-03-22T05:50:00;11.95;;;5.03;;
82410;SDS011;76378;60.040;30.218;2024-03-22T05:51:01;9.45;;;4.82;;
82410;SDS011;76378;60.040;30.218;2024-03-22T05:52:02;11.88;;;5.53;;
82410;SDS011;76378;60.040;30.218;2024-03-22T05:53:02;12.20;;;4.95;;
82410;SDS011;76378;60.040;30.218;2024-03-22T05:54:03;9.90;;;5.00;;
82410;SDS011;76378;60.040;30.218;2024-03-22T05:55:04;14.35;;;5.00;;
82410;SDS011;76378;60.040;30.218;2024-03-22T05:56:05;10.70;;;4.82;;
82410;SDS011;76378;60.040;30.218;2024-03-22T05:57:07;11.85;;;5.28;;
82410;SDS011;76378;60.040;30.218;2024-03-22T05:58:07;10.80;;;5.38;;
82410;SDS011;76378;60.040;30.218;2024-03-22T05:59:09;10.85;;;5.10;;
82410;SDS011;76378;60.040;30.218;2024-03-22T06:00:10;11.57;;;5.40;;
82410;SDS011;76378;60.040;30.218;2024-03-22T06:01:13;10.50;;;5.25;;